sensor_id;sensor_type;location;lat;lon;timestamp;pressure;altitude;pressure_sealevel;temperature;humidity
60427;BME280;46274;47.168;27.604;2023-02-01T00:04:04;99306.72;;;-0.56;70.28
60427;BME280;46274;47.168;27.604;2023-02-01T00:10:14;99466.44;;;0.42;69.60
60427;BME280;46274;47.168;27.604;2023-02-01T00:16:27;99590.00;;;1.17;68.90
60427;BME280;46274;47.168;27.604;2023-02-01T00:22:50;99484.81;;;0.57;68.90
60427;BME280;46274;47.168;27.604;2023-02-01T00:35:29;99562.34;;;1.18;68.63
60427;BME280;46274;47.168;27.604;2023-02-01T00:41:38;99584.56;;;1.40;68.15
60427;BME280;46274;47.168;27.604;2023-02-01T00:47:57;99580.53;;;1.24;67.08
60427;BME280;46274;47.168;27.604;2023-02-01T00:54:17;99575.38;;;1.12;68.11
60427;BME280;46274;47.168;27.604;2023-02-01T01:00:25;99582.63;;;0.77;69.90
60427;BME280;46274;47.168;27.604;2023-02-01T01:06:41;99523.06;;;0.56;69.26
60427;BME280;46274;47.168;27.604;2023-02-01T01:12:57;99565.19;;;0.73;69.68
60427;BME280;46274;47.168;27.604;2023-02-01T01:19:09;99564.31;;;0.52;70.45
60427;BME280;46274;47.168;27.604;2023-02-01T01:25:18;99556.34;;;0.18;71.84
60427;BME280;46274;47.168;27.604;2023-02-01T01:31:30;99500.91;;;0.12;70.88
60427;BME280;46274;47.168;27.604;2023-02-01T01:37:40;99535.81;;;-0.03;73.05
60427;BME280;46274;47.168;27.604;2023-02-01T01:44:02;99533.84;;;-0.01;73.26
60427;BME280;46274;47.168;27.604;2023-02-01T01:50:48;99524.78;;;0.13;72.63
60427;BME280;46274;47.168;27.604;2023-02-01T01:57:02;99521.03;;;-0.29;74.56
60427;BME280;46274;47.168;27.604;2023-02-01T02:03:49;99516.81;;;-0.20;74.13
60427;BME280;46274;47.168;27.604;2023-02-01T02:10:19;99489.94;;;-0.51;75.25
60427;BME280;46274;47.168;27.604;2023-02-01T02:30:28;99309.91;;;-1.29;73.93
60427;BME280;46274;47.168;27.604;2023-02-01T02:43:48;99449.31;;;-0.64;74.68
60427;BME280;46274;47.168;27.604;2023-02-01T02:50:44;99444.94;;;-0.54;74.34
60427;BME280;46274;47.168;27.604;2023-02-01T02:57:33;99475.66;;;-0.16;73.56
60427;BME280;46274;47.168;27.604;2023-02-01T03:04:06;99418.94;;;-0.51;74.26
60427;BME280;46274;47.168;27.604;2023-02-01T03:17:14;99413.25;;;-0.46;74.11
60427;BME280;46274;47.168;27.604;2023-02-01T03:23:28;99459.97;;;0.13;72.54
60427;BME280;46274;47.168;27.604;2023-02-01T03:29:51;99424.81;;;-0.02;72.42
60427;BME280;46274;47.168;27.604;2023-02-01T03:42:51;99430.28;;;-0.15;73.56
60427;BME280;46274;47.168;27.604;2023-02-01T03:49:06;99419.34;;;-0.01;72.31
60427;BME280;46274;47.168;27.604;2023-02-01T03:55:21;99374.56;;;-0.07;71.83
60427;BME280;46274;47.168;27.604;2023-02-01T04:01:49;99225.69;;;-0.95;71.96
60427;BME280;46274;47.168;27.604;2023-02-01T04:07:59;99399.69;;;0.12;72.50
60427;BME280;46274;47.168;27.604;2023-02-01T04:14:42;99106.44;;;-1.66;72.07
60427;BME280;46274;47.168;27.604;2023-02-01T04:20:51;99394.16;;;0.04;72.53
60427;BME280;46274;47.168;27.604;2023-02-01T04:27:17;99341.94;;;0.12;71.00
60427;BME280;46274;47.168;27.604;2023-02-01T04:33:31;99391.56;;;0.46;71.13
60427;BME280;46274;47.168;27.604;2023-02-01T04:39:33;99399.09;;;0.40;70.79
60427;BME280;46274;47.168;27.604;2023-02-01T04:45:47;99396.09;;;0.02;73.49
60427;BME280;46274;47.168;27.604;2023-02-01T04:51:51;99394.41;;;0.01;73.38
60427;BME280;46274;47.168;27.604;2023-02-01T04:57:54;99240.56;;;-1.04;74.48
60427;BME280;46274;47.168;27.604;2023-02-01T05:04:11;99319.66;;;-0.19;71.17
60427;BME280;46274;47.168;27.604;2023-02-01T05:10:17;99393.66;;;0.42;68.33
60427;BME280;46274;47.168;27.604;2023-02-01T05:16:22;99285.22;;;0.01;66.35
60427;BME280;46274;47.168;27.604;2023-02-01T05:22:36;99389.88;;;0.65;66.68
60427;BME280;46274;47.168;27.604;2023-02-01T05:28:57;99288.66;;;0.12;66.47
60427;BME280;46274;47.168;27.604;2023-02-01T05:35:13;99379.78;;;0.69;66.89
60427;BME280;46274;47.168;27.604;2023-02-01T05:41:40;99095.06;;;-1.02;66.83
60427;BME280;46274;47.168;27.604;2023-02-01T05:47:58;99389.69;;;0.78;66.12
60427;BME280;46274;47.168;27.604;2023-02-01T06:01:03;99283.16;;;0.25;66.31
60427;BME280;46274;47.168;27.604;2023-02-01T06:07:14;99405.41;;;1.02;66.48
60427;BME280;46274;47.168;27.604;2023-02-01T06:13:41;99222.06;;;0.12;65.22
60427;BME280;46274;47.168;27.604;2023-02-01T06:20:03;99319.53;;;0.78;64.91
60427;BME280;46274;47.168;27.604;2023-02-01T06:26:26;99428.94;;;1.49;64.76
60427;BME280;46274;47.168;27.604;2023-02-01T06:32:43;99179.47;;;-0.09;65.53
60427;BME280;46274;47.168;27.604;2023-02-01T06:38:53;99420.41;;;1.55;67.23
60427;BME280;46274;47.168;27.604;2023-02-01T06:45:10;99422.44;;;1.42;69.46
60427;BME280;46274;47.168;27.604;2023-02-01T06:51:45;99299.09;;;0.67;69.99
60427;BME280;46274;47.168;27.604;2023-02-01T06:58:10;99236.53;;;0.40;70.43
60427;BME280;46274;47.168;27.604;2023-02-01T07:04:21;99407.34;;;1.62;69.98
60427;BME280;46274;47.168;27.604;2023-02-01T07:10:38;99266.66;;;0.93;69.59
60427;BME280;46274;47.168;27.604;2023-02-01T07:16:40;99349.44;;;1.62;68.84
60427;BME280;46274;47.168;27.604;2023-02-01T07:22:55;99333.97;;;1.56;68.96
60427;BME280;46274;47.168;27.604;2023-02-01T07:29:03;99366.91;;;1.86;68.52
60427;BME280;46274;47.168;27.604;2023-02-01T07:35:40;99359.06;;;1.94;68.52
60427;BME280;46274;47.168;27.604;2023-02-01T07:41:42;99330.66;;;1.93;68.85
60427;BME280;46274;47.168;27.604;2023-02-01T07:48:07;99358.25;;;2.23;68.58
60427;BME280;46274;47.168;27.604;2023-02-01T07:54:31;99348.09;;;2.36;67.68
60427;BME280;46274;47.168;27.604;2023-02-01T08:00:40;99356.25;;;2.44;68.25
60427;BME280;46274;47.168;27.604;2023-02-01T08:07:12;99363.16;;;2.66;68.09
60427;BME280;46274;47.168;27.604;2023-02-01T08:13:21;99350.31;;;2.79;67.28
60427;BME280;46274;47.168;27.604;2023-02-01T08:19:40;99078.47;;;1.19;66.64
60427;BME280;46274;47.168;27.604;2023-02-01T08:25:52;99242.19;;;2.25;65.73
60427;BME280;46274;47.168;27.604;2023-02-01T08:32:20;99210.72;;;2.09;64.55
60427;BME280;46274;47.168;27.604;2023-02-01T08:38:29;99378.16;;;3.34;63.17
60427;BME280;46274;47.168;27.604;2023-02-01T08:44:31;99377.25;;;3.70;62.16
60427;BME280;46274;47.168;27.604;2023-02-01T08:51:01;99196.38;;;3.13;61.28
60427;BME280;46274;47.168;27.604;2023-02-01T08:57:23;99348.06;;;3.77;61.23
60427;BME280;46274;47.168;27.604;2023-02-01T09:03:53;99281.19;;;3.58;59.92
60427;BME280;46274;47.168;27.604;2023-02-01T09:10:29;99381.69;;;4.61;59.34
60427;BME280;46274;47.168;27.604;2023-02-01T09:16:40;99382.88;;;4.85;58.52
60427;BME280;46274;47.168;27.604;2023-02-01T09:22:52;99304.75;;;4.44;57.74
60427;BME280;46274;47.168;27.604;2023-02-01T09:29:02;99282.91;;;4.38;57.26
60427;BME280;46274;47.168;27.604;2023-02-01T09:35:05;99361.72;;;4.81;56.31
60427;BME280;46274;47.168;27.604;2023-02-01T09:48:31;99367.19;;;4.98;57.34
60427;BME280;46274;47.168;27.604;2023-02-01T10:03:04;99360.16;;;4.97;57.64
60427;BME280;46274;47.168;27.604;2023-02-01T10:16:45;99363.09;;;5.12;58.49
60427;BME280;46274;47.168;27.604;2023-02-01T10:36:40;99317.56;;;5.02;58.31
60427;BME280;46274;47.168;27.604;2023-02-01T10:42:50;99343.88;;;5.24;58.15
60427;BME280;46274;47.168;27.604;2023-02-01T10:56:11;99350.25;;;5.32;58.53
60427;BME280;46274;47.168;27.604;2023-02-01T11:09:25;99348.94;;;5.36;57.29
60427;BME280;46274;47.168;27.604;2023-02-01T11:22:18;99338.59;;;5.49;57.63
60427;BME280;46274;47.168;27.604;2023-02-01T11:28:42;99335.59;;;6.19;56.27
60427;BME280;46274;47.168;27.604;2023-02-01T11:35:15;99330.25;;;6.44;56.09
60427;BME280;46274;47.168;27.604;2023-02-01T11:41:25;99230.88;;;6.34;53.73
60427;BME280;46274;47.168;27.604;2023-02-01T11:47:42;99112.75;;;5.42;52.78
60427;BME280;46274;47.168;27.604;2023-02-01T11:54:10;99323.50;;;6.48;50.74
60427;BME280;46274;47.168;27.604;2023-02-01T12:13:13;99318.53;;;7.17;50.76
60427;BME280;46274;47.168;27.604;2023-02-01T12:27:05;99309.69;;;8.02;47.50
60427;BME280;46274;47.168;27.604;2023-02-01T12:53:51;99333.72;;;6.93;46.81
60427;BME280;46274;47.168;27.604;2023-02-01T13:00:32;99336.44;;;6.93;48.26
60427;BME280;46274;47.168;27.604;2023-02-01T13:20:28;99227.47;;;5.58;47.43
60427;BME280;46274;47.168;27.604;2023-02-01T13:26:35;99241.88;;;5.57;48.56
60427;BME280;46274;47.168;27.604;2023-02-01T13:32:50;99258.53;;;5.69;49.44
60427;BME280;46274;47.168;27.604;2023-02-01T13:46:05;99339.47;;;6.08;49.15
60427;BME280;46274;47.168;27.604;2023-02-01T13:52:37;99346.34;;;6.11;50.37
60427;BME280;46274;47.168;27.604;2023-02-01T14:06:43;99358.50;;;5.73;52.00
60427;BME280;46274;47.168;27.604;2023-02-01T14:19:46;99264.56;;;5.04;52.94
60427;BME280;46274;47.168;27.604;2023-02-01T14:26:06;99263.41;;;5.15;52.80
60427;BME280;46274;47.168;27.604;2023-02-01T14:32:53;99358.22;;;5.84;53.16
60427;BME280;46274;47.168;27.604;2023-02-01T14:39:01;99253.59;;;4.97;53.93
60427;BME280;46274;47.168;27.604;2023-02-01T14:51:36;99071.78;;;3.80;53.61
60427;BME280;46274;47.168;27.604;2023-02-01T14:58:04;99196.53;;;4.53;53.71
60427;BME280;46274;47.168;27.604;2023-02-01T15:04:18;99247.63;;;4.77;54.38
60427;BME280;46274;47.168;27.604;2023-02-01T15:11:15;99290.25;;;4.80;55.06
60427;BME280;46274;47.168;27.604;2023-02-01T15:17:36;99288.44;;;4.55;55.98
60427;BME280;46274;47.168;27.604;2023-02-01T15:23:52;99363.19;;;5.02;55.81
60427;BME280;46274;47.168;27.604;2023-02-01T15:30:34;99286.94;;;4.34;55.83
60427;BME280;46274;47.168;27.604;2023-02-01T15:37:05;99213.53;;;3.91;56.62
60427;BME280;46274;47.168;27.604;2023-02-01T15:43:14;99298.19;;;4.20;56.80
60427;BME280;46274;47.168;27.604;2023-02-01T15:49:41;99124.78;;;3.15;56.73
60427;BME280;46274;47.168;27.604;2023-02-01T16:02:48;99309.34;;;3.06;59.65
60427;BME280;46274;47.168;27.604;2023-02-01T16:09:17;99299.75;;;3.14;59.49
60427;BME280;46274;47.168;27.604;2023-02-01T16:15:55;99404.84;;;4.26;58.24
60427;BME280;46274;47.168;27.604;2023-02-01T16:22:07;99299.59;;;2.88;60.27
60427;BME280;46274;47.168;27.604;2023-02-01T16:28:24;99294.09;;;3.17;59.47
60427;BME280;46274;47.168;27.604;2023-02-01T16:34:35;99299.78;;;3.04;59.96
60427;BME280;46274;47.168;27.604;2023-02-01T16:40:47;99283.97;;;2.83;59.78
60427;BME280;46274;47.168;27.604;2023-02-01T16:46:57;99289.47;;;2.81;58.37
60427;BME280;46274;47.168;27.604;2023-02-01T16:53:14;99286.16;;;2.50;58.54
60427;BME280;46274;47.168;27.604;2023-02-01T16:59:25;99296.00;;;2.59;58.18
60427;BME280;46274;47.168;27.604;2023-02-01T17:05:44;99228.44;;;1.91;58.24
60427;BME280;46274;47.168;27.604;2023-02-01T17:12:34;99414.88;;;3.04;57.27
60427;BME280;46274;47.168;27.604;2023-02-01T17:19:06;99327.72;;;2.15;57.35
60427;BME280;46274;47.168;27.604;2023-02-01T17:25:36;99314.59;;;1.54;58.69
60427;BME280;46274;47.168;27.604;2023-02-01T17:31:57;99438.97;;;2.16;58.73
60427;BME280;46274;47.168;27.604;2023-02-01T17:38:26;99164.09;;;0.47;58.94
60427;BME280;46274;47.168;27.604;2023-02-01T17:44:57;99445.00;;;1.99;59.40
60427;BME280;46274;47.168;27.604;2023-02-01T17:51:56;99329.22;;;1.50;59.10
60427;BME280;46274;47.168;27.604;2023-02-01T17:58:16;99320.19;;;1.51;59.40
60427;BME280;46274;47.168;27.604;2023-02-01T18:04:29;99306.09;;;1.29;60.03
60427;BME280;46274;47.168;27.604;2023-02-01T18:10:59;99133.19;;;0.34;59.94
60427;BME280;46274;47.168;27.604;2023-02-01T18:17:47;99314.28;;;1.38;60.37
60427;BME280;46274;47.168;27.604;2023-02-01T18:24:16;99300.72;;;1.20;60.98
60427;BME280;46274;47.168;27.604;2023-02-01T18:30:49;99412.16;;;1.68;61.44
60427;BME280;46274;47.168;27.604;2023-02-01T18:37:05;99278.53;;;1.09;60.76
60427;BME280;46274;47.168;27.604;2023-02-01T18:43:12;99409.94;;;1.83;60.57
60427;BME280;46274;47.168;27.604;2023-02-01T18:49:25;99300.34;;;1.24;59.92
60427;BME280;46274;47.168;27.604;2023-02-01T18:55:45;99399.53;;;1.80;60.80
60427;BME280;46274;47.168;27.604;2023-02-01T19:01:56;99286.56;;;1.19;59.91
60427;BME280;46274;47.168;27.604;2023-02-01T19:08:15;99301.44;;;1.22;60.17
60427;BME280;46274;47.168;27.604;2023-02-01T19:14:37;99271.22;;;1.21;60.08
60427;BME280;46274;47.168;27.604;2023-02-01T19:21:06;99237.91;;;0.96;60.38
60427;BME280;46274;47.168;27.604;2023-02-01T19:27:19;99067.25;;;0.27;60.09
60427;BME280;46274;47.168;27.604;2023-02-01T19:33:35;99387.75;;;2.11;59.98
60427;BME280;46274;47.168;27.604;2023-02-01T19:40:02;99386.28;;;1.78;61.60
60427;BME280;46274;47.168;27.604;2023-02-01T19:46:25;99101.72;;;0.18;61.17
60427;BME280;46274;47.168;27.604;2023-02-01T19:52:40;99276.75;;;1.29;61.50
60427;BME280;46274;47.168;27.604;2023-02-01T19:58:56;99380.16;;;1.97;60.83
60427;BME280;46274;47.168;27.604;2023-02-01T20:05:06;99372.59;;;2.02;60.84
60427;BME280;46274;47.168;27.604;2023-02-01T20:11:27;99342.97;;;1.55;62.27
60427;BME280;46274;47.168;27.604;2023-02-01T20:17:33;99246.50;;;1.09;61.69
60427;BME280;46274;47.168;27.604;2023-02-01T20:24:05;99195.16;;;0.77;62.06
60427;BME280;46274;47.168;27.604;2023-02-01T20:30:16;99236.75;;;0.89;62.12
60427;BME280;46274;47.168;27.604;2023-02-01T20:36:35;99256.84;;;0.93;62.49
60427;BME280;46274;47.168;27.604;2023-02-01T20:42:44;99249.72;;;1.03;62.25
60427;BME280;46274;47.168;27.604;2023-02-01T20:48:49;99045.56;;;-0.30;62.31
60427;BME280;46274;47.168;27.604;2023-02-01T20:54:59;99312.75;;;1.45;61.85
60427;BME280;46274;47.168;27.604;2023-02-01T21:01:09;99042.09;;;-0.31;61.88
60427;BME280;46274;47.168;27.604;2023-02-01T21:07:26;99205.84;;;0.77;61.63
60427;BME280;46274;47.168;27.604;2023-02-01T21:13:36;99239.81;;;0.84;62.62
60427;BME280;46274;47.168;27.604;2023-02-01T21:20:06;99253.06;;;0.96;62.01
60427;BME280;46274;47.168;27.604;2023-02-01T21:26:24;99346.41;;;1.96;60.70
60427;BME280;46274;47.168;27.604;2023-02-01T21:32:33;99343.72;;;1.96;60.59
60427;BME280;46274;47.168;27.604;2023-02-01T21:38:37;99348.66;;;1.91;60.72
60427;BME280;46274;47.168;27.604;2023-02-01T21:44:40;99357.59;;;1.61;61.79
60427;BME280;46274;47.168;27.604;2023-02-01T21:50:56;99244.44;;;0.82;61.85
60427;BME280;46274;47.168;27.604;2023-02-01T21:57:09;99248.22;;;1.20;61.25
60427;BME280;46274;47.168;27.604;2023-02-01T22:03:17;99301.66;;;1.49;61.41
60427;BME280;46274;47.168;27.604;2023-02-01T22:09:23;99243.53;;;0.93;62.37
60427;BME280;46274;47.168;27.604;2023-02-01T22:15:33;99374.34;;;1.72;62.51
60427;BME280;46274;47.168;27.604;2023-02-01T22:21:57;99286.31;;;0.92;62.24
60427;BME280;46274;47.168;27.604;2023-02-01T22:28:07;99366.31;;;1.53;63.08
60427;BME280;46274;47.168;27.604;2023-02-01T22:34:28;99244.44;;;0.82;62.39
60427;BME280;46274;47.168;27.604;2023-02-01T22:40:55;99374.91;;;1.66;61.70
60427;BME280;46274;47.168;27.604;2023-02-01T22:47:05;99356.63;;;1.62;62.26
60427;BME280;46274;47.168;27.604;2023-02-01T22:53:17;99355.06;;;1.59;62.23
60427;BME280;46274;47.168;27.604;2023-02-01T22:59:38;99241.13;;;1.00;62.29
60427;BME280;46274;47.168;27.604;2023-02-01T23:06:06;99216.69;;;0.95;62.36
60427;BME280;46274;47.168;27.604;2023-02-01T23:12:18;99047.47;;;-0.11;62.61
60427;BME280;46274;47.168;27.604;2023-02-01T23:18:24;99319.13;;;1.63;62.84
60427;BME280;46274;47.168;27.604;2023-02-01T23:24:28;99311.13;;;1.73;62.21
60427;BME280;46274;47.168;27.604;2023-02-01T23:30:33;99321.94;;;2.01;62.13
60427;BME280;46274;47.168;27.604;2023-02-01T23:36:42;99316.59;;;1.81;62.30
60427;BME280;46274;47.168;27.604;2023-02-01T23:42:51;99057.91;;;0.02;63.19
60427;BME280;46274;47.168;27.604;2023-02-01T23:49:40;99124.56;;;0.21;64.91
60427;BME280;46274;47.168;27.604;2023-02-01T23:55:53;99209.69;;;0.94;64.34
